createdAt,value
2022-08-02T00:00:58.497Z,96.41
2022-08-02T00:03:26.530Z,96.86
2022-08-02T00:05:54.420Z,96.94
2022-08-02T00:08:22.665Z,97.36
2022-08-02T00:10:50.799Z,97.68
2022-08-02T00:13:18.491Z,97.96
2022-08-02T00:15:46.152Z,98.19
2022-08-02T00:18:13.983Z,98.51
2022-08-02T00:20:41.666Z,98.78
2022-08-02T00:23:09.307Z,98.93
2022-08-02T00:25:37.179Z,99.18
2022-08-02T00:28:27.264Z,99.34
2022-08-02T00:30:57.973Z,99.50
2022-08-02T00:34:27.293Z,99.76
2022-08-02T00:36:14.785Z,99.97
2022-08-02T00:38:42.462Z,100.00
2022-08-02T00:41:15.135Z,100.00
2022-08-02T00:43:44.100Z,100.00
2022-08-02T00:46:11.720Z,100.00
2022-08-02T00:48:42.998Z,100.00
2022-08-02T00:51:12.521Z,100.00
2022-08-02T00:53:40.688Z,100.00
2022-08-02T00:56:08.910Z,100.00
2022-08-02T00:58:37.580Z,100.00
2022-08-02T01:01:05.384Z,100.00
2022-08-02T01:03:33.120Z,100.00
2022-08-02T01:06:16.187Z,100.00
2022-08-02T01:08:44.545Z,100.00
2022-08-02T01:11:12.758Z,100.00
2022-08-02T01:13:40.672Z,100.00
2022-08-02T01:16:19.074Z,100.00
2022-08-02T01:18:54.314Z,100.00
2022-08-02T01:22:13.074Z,100.00
2022-08-02T01:24:59.542Z,100.00
2022-08-02T01:27:36.002Z,100.00
2022-08-02T01:30:07.097Z,100.00
2022-08-02T01:32:43.517Z,100.00
2022-08-02T01:35:21.516Z,100.00
2022-08-02T01:38:29.427Z,100.00
2022-08-02T01:41:01.057Z,100.00
2022-08-02T01:43:30.547Z,100.00
2022-08-02T01:46:00.530Z,100.00
2022-08-02T01:48:31.733Z,100.00
2022-08-02T01:51:02.593Z,100.00
2022-08-02T01:53:31.935Z,100.00
2022-08-02T01:56:01.289Z,100.00
2022-08-02T01:58:33.830Z,100.00
2022-08-02T02:01:03.131Z,100.00
2022-08-02T02:03:34.260Z,100.00
2022-08-02T02:06:05.526Z,100.00
2022-08-02T02:08:39.909Z,100.00
2022-08-02T02:12:06.258Z,100.00
2022-08-02T02:14:00.762Z,100.00
2022-08-02T02:16:32.058Z,100.00
2022-08-02T02:19:03.243Z,100.00
2022-08-02T02:21:31.542Z,100.00
2022-08-02T02:23:59.968Z,100.00
2022-08-02T02:26:31.366Z,100.00
2022-08-02T02:29:04.475Z,100.00
2022-08-02T02:31:37.864Z,100.00
2022-08-02T02:34:06.903Z,100.00
2022-08-02T02:36:36.994Z,100.00
2022-08-02T02:39:13.090Z,100.00
2022-08-02T02:41:43.526Z,100.00
2022-08-02T02:44:16.709Z,100.00
2022-08-02T02:46:45.168Z,100.00
2022-08-02T02:49:14.569Z,100.00
2022-08-02T02:51:43.952Z,100.00
2022-08-02T02:54:32.617Z,100.00
2022-08-02T02:57:02.583Z,100.00
2022-08-02T02:59:31.843Z,100.00
2022-08-02T03:02:00.113Z,100.00
2022-08-02T03:04:55.444Z,100.00
2022-08-02T03:07:17.484Z,100.00
2022-08-02T03:09:47.327Z,100.00
2022-08-02T03:12:27.166Z,100.00
2022-08-02T03:15:08.385Z,100.00
2022-08-02T03:17:44.256Z,100.00
2022-08-02T03:20:14.850Z,100.00
2022-08-02T03:22:44.006Z,100.00
2022-08-02T03:25:13.154Z,100.00
2022-08-02T03:27:41.041Z,100.00
2022-08-02T03:30:11.669Z,100.00
2022-08-02T03:32:41.501Z,100.00
2022-08-02T03:35:12.688Z,100.00
2022-08-02T03:37:41.607Z,100.00
2022-08-02T03:40:11.565Z,100.00
2022-08-02T03:42:40.547Z,100.00
2022-08-02T03:45:12.616Z,100.00
2022-08-02T03:47:41.806Z,100.00
2022-08-02T03:50:13.560Z,100.00
2022-08-02T03:52:45.555Z,100.00
2022-08-02T03:55:14.398Z,100.00
2022-08-02T03:57:42.921Z,100.00
2022-08-02T04:00:17.270Z,100.00
2022-08-02T04:02:45.218Z,100.00
2022-08-02T04:05:13.444Z,100.00
2022-08-02T04:08:33.215Z,100.00
2022-08-02T04:10:28.917Z,100.00
2022-08-02T04:12:56.993Z,100.00
2022-08-02T04:15:25.036Z,100.00
2022-08-02T04:17:59.553Z,100.00
2022-08-02T04:20:33.008Z,100.00
2022-08-02T04:23:10.062Z,100.00
2022-08-02T04:25:40.471Z,100.00
2022-08-02T04:28:17.665Z,100.00
2022-08-02T04:30:51.293Z,99.97
2022-08-02T04:33:19.556Z,98.27
2022-08-02T04:35:47.385Z,96.66
2022-08-02T04:38:16.361Z,95.04
2022-08-02T04:40:55.515Z,93.81
2022-08-02T04:43:23.717Z,92.06
2022-08-02T04:45:54.020Z,91.27
2022-08-02T04:48:22.606Z,89.73
2022-08-02T04:50:51.010Z,88.57
2022-08-02T04:53:19.096Z,87.46
2022-08-02T04:55:46.980Z,86.07
2022-08-02T04:58:38.672Z,84.98
2022-08-02T05:01:03.239Z,84.07
2022-08-02T05:03:30.978Z,82.24
2022-08-02T05:06:00.610Z,81.36
2022-08-02T05:08:28.539Z,79.58
2022-08-02T05:10:56.155Z,78.27
2022-08-02T05:13:23.852Z,77.84
2022-08-02T05:15:51.654Z,78.18
2022-08-02T05:18:19.383Z,77.60
2022-08-02T05:20:47.063Z,76.87
2022-08-02T05:23:14.913Z,76.47
2022-08-02T05:25:42.653Z,75.81
2022-08-02T05:28:11.809Z,75.66
2022-08-02T05:30:40.397Z,75.28
2022-08-02T05:33:08.421Z,75.07
2022-08-02T05:35:36.150Z,73.92
2022-08-02T05:38:04.096Z,72.50
2022-08-02T05:40:31.729Z,70.90
2022-08-02T05:42:59.345Z,68.77
2022-08-02T05:45:27.468Z,67.39
2022-08-02T05:47:55.049Z,67.15
2022-08-02T05:50:24.425Z,66.01
2022-08-02T05:53:05.204Z,64.46
2022-08-02T05:55:42.794Z,62.75
2022-08-02T05:58:44.058Z,60.07
2022-08-02T06:01:15.845Z,59.38
2022-08-02T06:03:52.206Z,57.77
2022-08-02T06:06:25.212Z,57.44
2022-08-02T06:09:00.938Z,57.53
2022-08-02T06:11:43.158Z,56.48
2022-08-02T06:14:34.265Z,54.93
2022-08-02T06:17:05.692Z,54.26
2022-08-02T06:19:46.822Z,54.45
2022-08-02T06:22:40.661Z,53.96
2022-08-02T06:25:47.871Z,53.23
2022-08-02T06:27:57.138Z,52.93
2022-08-02T06:30:25.131Z,52.16
2022-08-02T06:32:52.992Z,52.08
2022-08-02T06:35:20.925Z,52.57
2022-08-02T06:37:58.388Z,52.03
2022-08-02T06:40:29.767Z,51.58
2022-08-02T06:43:00.338Z,51.00
2022-08-02T06:45:28.022Z,51.21
2022-08-02T06:47:55.802Z,49.65
2022-08-02T06:50:23.837Z,49.35
2022-08-02T06:52:51.736Z,49.47
2022-08-02T06:55:19.590Z,48.45
2022-08-02T06:57:47.462Z,46.52
2022-08-02T07:00:15.431Z,45.43
2022-08-02T07:02:43.270Z,45.87
2022-08-02T07:05:11.264Z,45.42
2022-08-02T07:07:39.067Z,45.42
2022-08-02T07:10:06.932Z,44.47
2022-08-02T07:12:35.502Z,43.95
2022-08-02T07:15:06.316Z,44.07
2022-08-02T07:17:35.066Z,42.70
2022-08-02T07:20:03.761Z,41.58
2022-08-02T07:22:31.503Z,37.39
2022-08-02T07:25:00.710Z,33.16
2022-08-02T07:27:30.124Z,30.71
2022-08-02T07:29:58.241Z,26.77
2022-08-02T07:32:30.890Z,24.31
2022-08-02T07:34:59.883Z,21.67
2022-08-02T07:37:54.090Z,19.98
2022-08-02T07:40:22.807Z,19.91
2022-08-02T07:42:57.930Z,18.96
2022-08-02T07:45:32.361Z,18.11
2022-08-02T07:48:00.217Z,17.81
2022-08-02T07:50:28.544Z,15.80
2022-08-02T07:52:57.765Z,15.29
2022-08-02T07:55:40.082Z,15.80
2022-08-02T07:58:13.647Z,15.53
2022-08-02T08:00:44.912Z,14.69
2022-08-02T08:03:13.503Z,15.47
2022-08-02T08:05:41.309Z,14.81
2022-08-02T08:08:13.618Z,14.10
2022-08-02T08:10:44.862Z,13.97
2022-08-02T08:13:12.620Z,14.09
2022-08-02T08:15:40.255Z,13.56
2022-08-02T08:18:08.112Z,13.36
2022-08-02T08:20:37.993Z,13.80
2022-08-02T08:23:05.670Z,13.85
2022-08-02T08:25:39.887Z,13.48
2022-08-02T08:28:09.437Z,13.81
2022-08-02T08:30:37.297Z,13.08
2022-08-02T08:33:05.248Z,13.06
2022-08-02T08:35:32.819Z,12.97
2022-08-02T08:38:05.469Z,13.28
2022-08-02T08:40:35.541Z,12.72
2022-08-02T08:43:04.322Z,12.88
2022-08-02T08:45:31.999Z,12.61
2022-08-02T08:48:15.980Z,12.48
2022-08-02T08:51:05.703Z,13.07
2022-08-02T08:53:43.981Z,12.70
2022-08-02T08:56:16.347Z,13.25
2022-08-02T08:58:47.559Z,12.92
2022-08-02T09:01:16.944Z,12.41
2022-08-02T09:03:45.777Z,12.90
2022-08-02T09:06:13.499Z,13.02
2022-08-02T09:08:41.406Z,13.05
2022-08-02T09:11:23.148Z,13.59
2022-08-02T09:14:01.192Z,13.26
2022-08-02T09:16:43.754Z,13.58
2022-08-02T09:19:19.075Z,13.93
2022-08-02T09:21:48.858Z,13.42
2022-08-02T09:24:22.834Z,14.25
2022-08-02T09:26:51.354Z,14.17
2022-08-02T09:29:22.420Z,13.81
2022-08-02T09:31:51.045Z,13.35
2022-08-02T09:34:19.705Z,13.77
2022-08-02T09:36:48.470Z,14.14
2022-08-02T09:39:23.927Z,14.64
2022-08-02T09:41:51.840Z,14.86
2022-08-02T09:44:20.559Z,15.96
2022-08-02T09:46:48.248Z,16.13
2022-08-02T09:49:18.915Z,16.37
2022-08-02T09:51:49.695Z,16.87
2022-08-02T09:54:25.765Z,17.11
2022-08-02T09:56:59.099Z,17.77
2022-08-02T09:59:28.374Z,18.62
2022-08-02T10:02:01.781Z,19.50
2022-08-02T10:04:34.523Z,20.32
2022-08-02T10:07:22.250Z,21.48
2022-08-02T10:09:52.051Z,23.20
2022-08-02T10:12:23.034Z,24.36
2022-08-02T10:14:54.196Z,24.63
2022-08-02T10:17:21.843Z,23.22
2022-08-02T10:20:02.288Z,23.45
2022-08-02T10:22:36.325Z,22.45
2022-08-02T10:25:06.544Z,23.32
2022-08-02T10:27:55.484Z,24.94
2022-08-02T10:30:26.585Z,25.76
2022-08-02T10:32:56.223Z,26.44
2022-08-02T10:35:26.661Z,27.28
2022-08-02T10:38:04.014Z,28.33
2022-08-02T10:40:53.482Z,30.20
2022-08-02T10:43:36.474Z,30.96
2022-08-02T10:46:24.461Z,31.75
2022-08-02T10:52:06.033Z,33.36
2022-08-02T10:54:33.751Z,33.49
2022-08-02T10:57:02.497Z,34.11
2022-08-02T10:59:36.826Z,33.31
2022-08-02T11:02:07.130Z,33.35
2022-08-02T11:04:37.271Z,32.54
2022-08-02T11:07:10.821Z,33.08
2022-08-02T11:09:39.151Z,33.62
2022-08-02T11:12:13.454Z,33.76
2022-08-02T11:14:44.290Z,34.25
2022-08-02T11:17:16.602Z,34.66
2022-08-02T11:20:12.497Z,34.54
2022-08-02T11:22:41.446Z,35.37
2022-08-02T11:25:24.642Z,35.27
2022-08-02T11:27:59.635Z,34.87
2022-08-02T11:30:27.996Z,35.07
2022-08-02T11:32:59.955Z,34.86
2022-08-02T11:35:38.887Z,34.52
2022-08-02T11:38:20.421Z,34.36
2022-08-02T11:40:49.479Z,33.94
2022-08-02T11:43:21.999Z,33.60
2022-08-02T11:45:52.468Z,33.28
2022-08-02T11:48:33.848Z,32.87
2022-08-02T11:51:10.529Z,33.54
2022-08-02T11:53:50.872Z,33.52
2022-08-02T11:56:32.546Z,35.02
2022-08-02T11:59:07.357Z,35.33
2022-08-02T12:01:45.633Z,35.25
2022-08-02T12:04:19.428Z,36.14
2022-08-02T12:06:58.776Z,36.50
2022-08-02T12:09:28.706Z,35.78
2022-08-02T12:11:58.123Z,36.33
2022-08-02T12:14:28.755Z,36.44
2022-08-02T12:17:15.625Z,36.20
2022-08-02T12:19:44.365Z,35.80
2022-08-02T12:22:27.464Z,34.51
2022-08-02T12:24:57.674Z,34.47
2022-08-02T12:27:30.169Z,34.01
2022-08-02T12:30:06.821Z,34.17
2022-08-02T12:32:34.829Z,33.66
2022-08-02T12:35:26.039Z,34.76
2022-08-02T12:37:54.734Z,35.15
2022-08-02T12:40:32.292Z,34.24
2022-08-02T12:43:01.288Z,34.43
2022-08-02T12:45:38.308Z,34.37
2022-08-02T12:48:09.256Z,34.33
2022-08-02T12:50:37.912Z,34.40
2022-08-02T12:53:17.622Z,34.93
2022-08-02T12:55:59.911Z,35.06
2022-08-02T12:58:46.041Z,34.69
2022-08-02T13:01:25.576Z,35.43
2022-08-02T13:04:10.120Z,34.53
2022-08-02T13:06:44.450Z,34.33
2022-08-02T13:09:15.699Z,34.18
2022-08-02T13:11:44.387Z,34.22
2022-08-02T13:14:13.882Z,35.04
2022-08-02T13:16:43.712Z,35.06
2022-08-02T13:19:13.166Z,35.84
2022-08-02T13:22:11.163Z,36.08
2022-08-02T13:24:39.990Z,35.74
2022-08-02T13:27:16.814Z,35.19
2022-08-02T13:29:44.743Z,35.64
2022-08-02T13:32:12.760Z,35.49
2022-08-02T13:34:40.589Z,35.36
2022-08-02T13:37:08.435Z,36.36
2022-08-02T13:39:36.114Z,37.28
2022-08-02T13:42:04.071Z,36.53
2022-08-02T13:44:34.899Z,36.95
2022-08-02T13:47:03.065Z,37.30
2022-08-02T13:49:49.657Z,37.16
2022-08-02T13:52:18.824Z,37.88
2022-08-02T13:54:46.547Z,37.48
2022-08-02T13:57:14.181Z,37.49
2022-08-02T13:59:57.199Z,37.57
2022-08-02T14:02:30.461Z,38.23
2022-08-02T14:04:58.431Z,38.45
2022-08-02T14:07:26.157Z,38.04
2022-08-02T14:09:53.858Z,37.75
2022-08-02T14:12:21.701Z,36.96
2022-08-02T14:14:49.522Z,36.44
2022-08-02T14:17:18.867Z,37.18
2022-08-02T14:19:47.091Z,37.67
2022-08-02T14:22:14.942Z,38.74
2022-08-02T14:24:42.606Z,39.30
2022-08-02T14:27:10.854Z,39.44
2022-08-02T14:29:39.086Z,39.78
2022-08-02T14:32:07.045Z,40.25
2022-08-02T14:34:34.811Z,41.03
2022-08-02T14:37:02.477Z,40.71
2022-08-02T14:39:43.032Z,40.32
2022-08-02T14:42:18.393Z,40.91
2022-08-02T14:44:46.079Z,39.62
2022-08-02T14:47:13.802Z,39.52
2022-08-02T14:49:44.152Z,40.11
2022-08-02T14:52:14.761Z,40.31
2022-08-02T14:54:43.214Z,41.04
2022-08-02T14:57:11.411Z,41.15
2022-08-02T14:59:42.304Z,40.77
2022-08-02T15:02:11.906Z,40.37
2022-08-02T15:04:42.839Z,39.97
2022-08-02T15:07:12.132Z,39.40
2022-08-02T15:09:40.344Z,39.22
2022-08-02T15:12:09.552Z,38.46
2022-08-02T15:14:38.429Z,39.20
2022-08-02T15:17:07.124Z,38.90
2022-08-02T15:19:56.177Z,38.90
2022-08-02T15:22:22.995Z,39.79
2022-08-02T15:24:50.956Z,39.57
2022-08-02T15:27:18.885Z,39.91
2022-08-02T15:29:47.382Z,39.08
2022-08-02T15:32:18.909Z,38.77
2022-08-02T15:34:47.206Z,38.22
2022-08-02T15:37:15.013Z,38.00
2022-08-02T15:39:42.692Z,37.88
2022-08-02T15:42:10.734Z,38.03
2022-08-02T15:44:38.863Z,37.80
2022-08-02T15:47:07.587Z,38.44
2022-08-02T15:49:39.311Z,38.62
2022-08-02T15:52:09.262Z,38.82
2022-08-02T15:54:36.896Z,39.59
2022-08-02T15:57:04.713Z,40.59
2022-08-02T15:59:32.655Z,41.00
2022-08-02T16:02:00.344Z,40.57
2022-08-02T16:04:28.219Z,40.88
2022-08-02T16:06:56.094Z,40.34
2022-08-02T16:09:23.751Z,40.48
2022-08-02T16:11:51.415Z,41.18
2022-08-02T16:14:19.204Z,41.72
2022-08-02T16:16:46.864Z,41.56
2022-08-02T16:19:45.822Z,40.96
2022-08-02T16:22:03.091Z,39.97
2022-08-02T16:24:30.883Z,40.06
2022-08-02T16:26:58.861Z,40.54
2022-08-02T16:29:26.871Z,39.95
2022-08-02T16:32:01.094Z,40.07
2022-08-02T16:34:44.829Z,39.68
2022-08-02T16:37:16.789Z,39.63
2022-08-02T16:39:44.616Z,39.50
2022-08-02T16:42:12.269Z,39.77
2022-08-02T16:44:53.579Z,39.75
2022-08-02T16:47:43.332Z,39.67
2022-08-02T16:50:11.418Z,39.84
2022-08-02T16:52:39.637Z,40.55
2022-08-02T16:55:10.156Z,41.22
2022-08-02T16:57:45.453Z,40.94
2022-08-02T17:00:18.523Z,40.88
2022-08-02T17:02:46.903Z,41.37
2022-08-02T17:05:15.028Z,42.12
2022-08-02T17:08:16.386Z,42.43
2022-08-02T17:10:34.425Z,42.15
2022-08-02T17:13:11.140Z,42.75
2022-08-02T17:16:08.353Z,43.16
2022-08-02T17:18:29.314Z,43.36
2022-08-02T17:20:57.730Z,44.29
2022-08-02T17:23:47.116Z,44.36
2022-08-02T17:26:13.715Z,44.76
2022-08-02T17:29:07.062Z,44.86
2022-08-02T17:31:37.314Z,45.25
2022-08-02T17:34:11.738Z,45.41
2022-08-02T17:36:39.834Z,45.37
2022-08-02T17:39:08.025Z,45.85
2022-08-02T17:41:39.801Z,46.84
2022-08-02T17:44:37.608Z,47.25
2022-08-02T17:47:08.778Z,47.82
2022-08-02T17:49:44.443Z,48.56
2022-08-02T17:52:50.913Z,49.18
2022-08-02T17:55:06.247Z,49.64
2022-08-02T17:57:56.050Z,50.05
2022-08-02T18:00:21.859Z,50.74
2022-08-02T18:02:50.575Z,51.19
2022-08-02T18:05:40.123Z,51.74
2022-08-02T18:08:22.719Z,52.66
2022-08-02T18:10:53.390Z,53.29
2022-08-02T18:13:21.359Z,53.56
2022-08-02T18:15:52.452Z,54.35
2022-08-02T18:18:29.404Z,54.83
2022-08-02T18:21:15.640Z,55.83
2022-08-02T18:23:48.653Z,56.84
2022-08-02T18:26:20.834Z,57.81
2022-08-02T18:28:49.176Z,58.48
2022-08-02T18:31:22.228Z,59.61
2022-08-02T18:33:54.494Z,60.63
2022-08-02T18:36:29.582Z,61.36
2022-08-02T18:38:58.192Z,62.52
2022-08-02T18:41:25.977Z,62.78
2022-08-02T18:43:56.482Z,63.40
2022-08-02T18:46:26.559Z,63.97
2022-08-02T18:48:58.258Z,64.74
2022-08-02T18:51:36.759Z,65.43
2022-08-02T18:54:05.242Z,66.25
2022-08-02T18:56:32.951Z,66.93
2022-08-02T18:59:07.571Z,67.63
2022-08-02T19:01:44.916Z,68.54
2022-08-02T19:04:26.960Z,69.04
2022-08-02T19:06:56.678Z,69.80
2022-08-02T19:09:31.789Z,70.27
2022-08-02T19:11:59.460Z,71.36
2022-08-02T19:14:28.866Z,71.91
2022-08-02T19:17:00.479Z,72.35
2022-08-02T19:19:44.287Z,72.51
2022-08-02T19:22:26.522Z,73.16
2022-08-02T19:24:59.938Z,73.89
2022-08-02T19:27:32.533Z,74.23
2022-08-02T19:30:04.388Z,74.41
2022-08-02T19:32:41.830Z,74.71
2022-08-02T19:35:30.542Z,75.43
2022-08-02T19:38:08.558Z,76.21
2022-08-02T19:40:39.949Z,76.67
2022-08-02T19:44:24.508Z,76.92
2022-08-02T19:45:57.389Z,77.39
2022-08-02T19:48:27.061Z,77.80
2022-08-02T19:50:59.476Z,78.34
2022-08-02T19:53:47.653Z,78.65
2022-08-02T19:56:25.673Z,79.58
2022-08-02T19:58:55.715Z,80.05
2022-08-02T20:01:36.829Z,80.35
2022-08-02T20:04:13.532Z,80.83
2022-08-02T20:06:45.048Z,81.45
2022-08-02T20:09:21.009Z,81.88
2022-08-02T20:11:54.517Z,82.57
2022-08-02T20:14:27.434Z,83.18
2022-08-02T20:16:56.840Z,83.66
2022-08-02T20:19:25.323Z,84.44
2022-08-02T20:21:59.796Z,84.83
2022-08-02T20:24:29.547Z,85.26
2022-08-02T20:26:59.473Z,85.51
2022-08-02T20:29:43.114Z,86.02
2022-08-02T20:32:22.392Z,86.53
2022-08-02T20:34:50.933Z,87.07
2022-08-02T20:37:59.722Z,87.65
2022-08-02T20:40:10.199Z,88.35
2022-08-02T20:42:47.634Z,88.55
2022-08-02T20:45:16.434Z,89.00
2022-08-02T20:47:45.908Z,89.30
2022-08-02T20:50:37.824Z,89.61
2022-08-02T20:53:06.487Z,90.13
2022-08-02T20:55:35.816Z,90.27
2022-08-02T20:58:04.637Z,90.86
2022-08-02T21:00:33.398Z,91.14
2022-08-02T21:03:02.652Z,91.47
2022-08-02T21:05:54.084Z,91.28
2022-08-02T21:08:21.614Z,91.42
2022-08-02T21:10:52.686Z,91.47
2022-08-02T21:13:22.345Z,91.74
2022-08-02T21:15:51.671Z,91.87
2022-08-02T21:18:21.895Z,92.19
2022-08-02T21:21:00.390Z,92.24
2022-08-02T21:23:28.743Z,92.27
2022-08-02T21:25:59.017Z,92.69
2022-08-02T21:28:35.099Z,92.97
2022-08-02T21:31:15.488Z,93.22
2022-08-02T21:33:56.790Z,93.26
2022-08-02T21:36:30.514Z,93.25
2022-08-02T21:39:05.934Z,93.21
2022-08-02T21:41:46.107Z,93.41
2022-08-02T21:47:04.306Z,93.61
2022-08-02T21:50:08.771Z,93.91
2022-08-02T21:52:25.265Z,94.05
2022-08-02T21:54:55.783Z,94.33
2022-08-02T21:57:24.521Z,94.08
2022-08-02T21:59:55.537Z,94.26
2022-08-02T22:02:29.452Z,94.31
2022-08-02T22:04:58.863Z,94.52
2022-08-02T22:07:27.354Z,94.84
2022-08-02T22:09:55.521Z,95.29
2022-08-02T22:12:26.404Z,95.87
2022-08-02T22:14:56.313Z,96.42
2022-08-02T22:17:50.713Z,96.93
2022-08-02T22:20:19.901Z,97.37
2022-08-02T22:22:52.626Z,98.07
2022-08-02T22:25:27.049Z,98.12
2022-08-02T22:28:35.652Z,98.78
2022-08-02T22:30:55.340Z,98.97
2022-08-02T22:33:47.082Z,99.22
2022-08-02T22:36:29.759Z,99.20
2022-08-02T22:38:57.978Z,99.44
2022-08-02T22:41:25.698Z,99.58
2022-08-02T22:44:13.554Z,100.00
2022-08-02T22:46:42.490Z,100.00
2022-08-02T22:49:10.120Z,100.00
2022-08-02T22:51:57.925Z,100.00
2022-08-02T22:54:25.666Z,100.00
2022-08-02T22:56:53.356Z,100.00
2022-08-02T22:59:03.435Z,93.37
2022-08-02T22:59:39.220Z,100.00
2022-08-02T23:02:08.710Z,100.00
2022-08-02T23:04:37.665Z,100.00
2022-08-02T23:07:06.117Z,100.00
2022-08-02T23:09:33.826Z,100.00
2022-08-02T23:12:02.094Z,100.00
2022-08-02T23:14:30.617Z,100.00
2022-08-02T23:17:16.792Z,100.00
2022-08-02T23:19:50.624Z,100.00
2022-08-02T23:22:29.400Z,100.00
2022-08-02T23:25:00.877Z,100.00
2022-08-02T23:27:29.725Z,100.00
2022-08-02T23:29:57.464Z,100.00
2022-08-02T23:32:26.092Z,100.00
2022-08-02T23:34:58.058Z,100.00
2022-08-02T23:37:26.486Z,100.00
2022-08-02T23:39:54.192Z,100.00
2022-08-02T23:42:23.463Z,100.00
2022-08-02T23:44:51.891Z,100.00
2022-08-02T23:47:20.125Z,100.00
2022-08-02T23:49:48.068Z,100.00
2022-08-02T23:52:15.964Z,100.00
2022-08-02T23:54:43.681Z,100.00
2022-08-02T23:57:20.847Z,100.00
2022-08-02T23:59:51.246Z,100.00
